createdAt,value
2018-08-11T00:00:19.337Z,0.00
2018-08-11T00:03:19.270Z,0.00
2018-08-11T00:06:19.262Z,0.00
2018-08-11T00:09:19.224Z,0.00
2018-08-11T00:12:19.196Z,0.00
2018-08-11T00:15:19.136Z,0.00
2018-08-11T00:18:19.141Z,0.00
2018-08-11T00:21:19.137Z,0.00
2018-08-11T00:24:19.066Z,0.00
2018-08-11T00:27:18.999Z,0.00
2018-08-11T00:30:19.004Z,0.00
2018-08-11T00:33:18.956Z,0.00
2018-08-11T00:36:18.993Z,0.00
2018-08-11T00:39:18.864Z,0.00
2018-08-11T00:42:18.875Z,0.00
2018-08-11T00:45:18.815Z,0.00
2018-08-11T00:48:18.893Z,0.00
2018-08-11T00:51:18.737Z,0.00
2018-08-11T00:54:18.741Z,0.00
2018-08-11T00:57:18.806Z,0.00
2018-08-11T01:00:18.661Z,0.00
2018-08-11T01:03:18.599Z,0.00
2018-08-11T01:06:18.597Z,0.00
2018-08-11T01:09:18.535Z,0.00
2018-08-11T01:12:18.507Z,0.00
2018-08-11T01:15:18.570Z,0.00
2018-08-11T01:18:18.459Z,0.00
2018-08-11T01:21:18.398Z,0.00
2018-08-11T01:24:18.397Z,0.00
2018-08-11T01:27:18.336Z,0.00
2018-08-11T01:30:18.325Z,0.00
2018-08-11T01:33:18.291Z,0.00
2018-08-11T01:36:18.243Z,0.00
2018-08-11T01:39:18.213Z,0.00
2018-08-11T01:42:18.246Z,0.00
2018-08-11T01:45:18.124Z,0.00
2018-08-11T01:48:18.118Z,0.00
2018-08-11T01:51:18.056Z,0.00
2018-08-11T01:54:18.048Z,0.00
2018-08-11T01:57:18.001Z,0.00
2018-08-11T02:00:17.969Z,0.00
2018-08-11T02:03:17.962Z,0.00
2018-08-11T02:06:17.922Z,0.00
2018-08-11T02:09:17.899Z,0.00
2018-08-11T02:12:17.839Z,0.00
2018-08-11T02:15:17.786Z,0.00
2018-08-11T02:18:17.769Z,0.00
2018-08-11T02:21:17.721Z,0.00
2018-08-11T02:24:17.743Z,0.00
2018-08-11T02:27:17.652Z,0.00
2018-08-11T02:30:17.644Z,0.00
2018-08-11T02:33:17.619Z,0.00
2018-08-11T02:36:17.569Z,0.00
2018-08-11T02:39:17.532Z,0.00
2018-08-11T02:42:17.534Z,0.00
2018-08-11T02:45:17.463Z,0.00
2018-08-11T02:48:17.438Z,0.00
2018-08-11T02:51:17.388Z,0.00
2018-08-11T02:54:17.383Z,0.00
2018-08-11T02:57:17.316Z,0.00
2018-08-11T03:00:17.321Z,0.00
2018-08-11T03:03:17.264Z,0.00
2018-08-11T03:06:17.233Z,0.00
2018-08-11T03:09:17.176Z,0.00
2018-08-11T03:12:17.183Z,0.00
2018-08-11T03:15:17.120Z,0.00
2018-08-11T03:18:17.123Z,0.00
2018-08-11T03:21:17.055Z,0.00
2018-08-11T03:24:17.031Z,0.00
2018-08-11T03:27:16.979Z,0.00
2018-08-11T03:30:16.989Z,0.00
2018-08-11T03:33:16.916Z,0.00
2018-08-11T03:36:16.910Z,0.00
2018-08-11T03:39:16.841Z,0.00
2018-08-11T03:42:17.463Z,0.00
2018-08-11T03:45:16.780Z,0.00
2018-08-11T03:48:16.775Z,0.00
2018-08-11T03:51:17.539Z,0.00
2018-08-11T03:54:16.688Z,0.00
2018-08-11T03:57:16.676Z,0.00
2018-08-11T04:00:16.626Z,0.00
2018-08-11T04:03:16.587Z,0.00
2018-08-11T04:06:16.554Z,5.62
2018-08-11T04:09:16.511Z,5.62
2018-08-11T04:12:16.504Z,11.25
2018-08-11T04:15:16.455Z,11.25
2018-08-11T04:18:16.432Z,16.88
2018-08-11T04:21:16.417Z,22.50
2018-08-11T04:24:16.359Z,28.12
2018-08-11T04:27:16.314Z,33.75
2018-08-11T04:30:16.284Z,39.38
2018-08-11T04:33:16.261Z,45.00
2018-08-11T04:36:16.246Z,50.62
2018-08-11T04:39:16.218Z,61.88
2018-08-11T04:42:16.162Z,67.50
2018-08-11T04:45:16.124Z,140.62
2018-08-11T04:48:16.078Z,157.50
2018-08-11T04:51:16.040Z,157.50
2018-08-11T04:54:16.035Z,163.12
2018-08-11T04:57:16.015Z,185.62
2018-08-11T05:00:15.948Z,208.12
2018-08-11T05:03:15.935Z,219.38
2018-08-11T05:06:15.891Z,225.00
2018-08-11T05:09:15.837Z,230.62
2018-08-11T05:12:15.869Z,236.25
2018-08-11T05:15:15.770Z,247.50
2018-08-11T05:18:15.761Z,253.12
2018-08-11T05:21:15.721Z,292.50
2018-08-11T05:24:15.717Z,253.12
2018-08-11T05:27:15.634Z,236.25
2018-08-11T05:30:15.640Z,253.12
2018-08-11T05:33:15.732Z,281.25
2018-08-11T05:36:15.560Z,337.50
2018-08-11T05:39:15.509Z,309.38
2018-08-11T05:42:15.486Z,393.75
2018-08-11T05:45:15.442Z,270.00
2018-08-11T05:48:15.424Z,382.50
2018-08-11T05:51:15.367Z,399.38
2018-08-11T05:54:15.386Z,511.88
2018-08-11T05:57:15.344Z,320.62
2018-08-11T06:00:15.322Z,270.00
2018-08-11T06:03:15.244Z,450.00
2018-08-11T06:06:15.233Z,466.88
2018-08-11T06:09:15.194Z,534.38
2018-08-11T06:12:15.160Z,568.12
2018-08-11T06:15:15.116Z,630.00
2018-08-11T06:18:15.093Z,613.12
2018-08-11T06:21:15.139Z,742.50
2018-08-11T06:24:15.020Z,804.38
2018-08-11T06:27:14.982Z,871.88
2018-08-11T06:30:14.955Z,956.25
2018-08-11T06:33:14.910Z,742.50
2018-08-11T06:36:14.921Z,635.62
2018-08-11T06:39:14.865Z,551.25
2018-08-11T06:42:14.848Z,517.50
2018-08-11T06:45:14.791Z,523.12
2018-08-11T06:48:14.754Z,534.38
2018-08-11T06:51:14.734Z,506.25
2018-08-11T06:54:14.729Z,523.12
2018-08-11T06:57:14.665Z,540.00
2018-08-11T07:00:14.695Z,534.38
2018-08-11T07:03:14.584Z,585.00
2018-08-11T07:06:15.603Z,472.50
2018-08-11T07:09:14.518Z,551.25
2018-08-11T07:12:14.510Z,438.75
2018-08-11T07:15:14.518Z,573.75
2018-08-11T07:18:14.455Z,568.12
2018-08-11T07:21:14.441Z,601.88
2018-08-11T07:24:14.401Z,635.62
2018-08-11T07:27:14.468Z,911.25
2018-08-11T07:30:14.346Z,1209.38
2018-08-11T07:33:14.258Z,1220.62
2018-08-11T07:36:14.419Z,1215.00
2018-08-11T07:39:14.201Z,838.12
2018-08-11T07:42:14.195Z,1440.00
2018-08-11T07:45:14.935Z,1440.00
2018-08-11T07:48:14.161Z,1535.62
2018-08-11T07:51:14.121Z,1546.88
2018-08-11T07:54:14.091Z,1642.50
2018-08-11T07:57:14.003Z,1614.38
2018-08-11T08:00:13.993Z,1794.38
2018-08-11T08:03:13.955Z,495.00
2018-08-11T08:06:13.960Z,1738.12
2018-08-11T08:09:13.876Z,1580.62
2018-08-11T08:12:13.868Z,1867.50
2018-08-11T08:15:13.808Z,1935.00
2018-08-11T08:18:13.792Z,669.38
2018-08-11T08:21:13.756Z,1873.12
2018-08-11T08:24:13.721Z,517.50
2018-08-11T08:27:13.678Z,2154.38
2018-08-11T08:30:13.658Z,810.00
2018-08-11T08:33:13.621Z,1771.88
2018-08-11T08:36:13.601Z,2188.12
2018-08-11T08:39:13.570Z,2289.38
2018-08-11T08:42:13.539Z,2193.75
2018-08-11T08:45:13.493Z,2221.88
2018-08-11T08:48:13.497Z,528.75
2018-08-11T08:51:13.445Z,736.88
2018-08-11T08:54:13.409Z,2340.00
2018-08-11T08:57:13.380Z,2306.25
2018-08-11T09:00:13.367Z,2430.00
2018-08-11T09:03:13.309Z,551.25
2018-08-11T09:06:13.282Z,1063.12
2018-08-11T09:09:13.259Z,2323.12
2018-08-11T09:12:13.229Z,1018.12
2018-08-11T09:15:13.182Z,675.00
2018-08-11T09:18:13.164Z,556.88
2018-08-11T09:21:13.122Z,2356.88
2018-08-11T09:24:13.090Z,2418.75
2018-08-11T09:27:13.049Z,585.00
2018-08-11T09:30:13.059Z,601.88
2018-08-11T09:33:12.986Z,2497.50
2018-08-11T09:36:12.962Z,714.38
2018-08-11T09:39:12.914Z,776.25
2018-08-11T09:42:12.970Z,911.25
2018-08-11T09:45:12.905Z,753.75
2018-08-11T09:48:15.836Z,2452.50
2018-08-11T09:51:12.800Z,2705.62
2018-08-11T09:54:12.773Z,2649.38
2018-08-11T09:57:13.754Z,2671.88
2018-08-11T10:00:12.712Z,2953.12
2018-08-11T10:03:12.724Z,2778.75
2018-08-11T10:06:14.448Z,1445.62
2018-08-11T10:09:12.649Z,2683.12
2018-08-11T10:12:12.593Z,2896.88
2018-08-11T10:15:12.572Z,736.88
2018-08-11T10:18:12.540Z,573.75
2018-08-11T10:21:12.597Z,2542.50
2018-08-11T10:24:12.475Z,2677.50
2018-08-11T10:27:12.442Z,2745.00
2018-08-11T10:30:12.463Z,759.38
2018-08-11T10:33:12.411Z,742.50
2018-08-11T10:36:12.406Z,765.00
2018-08-11T10:39:12.342Z,765.00
2018-08-11T10:42:12.352Z,2396.25
2018-08-11T10:45:12.305Z,2317.50
2018-08-11T10:48:12.223Z,2896.88
2018-08-11T10:51:12.234Z,2655.00
2018-08-11T10:54:12.174Z,928.12
2018-08-11T10:57:12.134Z,618.75
2018-08-11T11:00:12.105Z,714.38
2018-08-11T11:03:12.118Z,905.62
2018-08-11T11:06:12.183Z,1243.12
2018-08-11T11:09:12.045Z,2379.38
2018-08-11T11:12:12.469Z,1856.25
2018-08-11T11:15:11.950Z,2784.38
2018-08-11T11:18:11.985Z,2345.62
2018-08-11T11:21:11.874Z,3015.00
2018-08-11T11:24:11.850Z,2863.12
2018-08-11T11:27:11.833Z,3037.50
2018-08-11T11:30:11.866Z,2981.25
2018-08-11T11:33:11.749Z,3003.75
2018-08-11T11:36:11.851Z,3318.75
2018-08-11T11:39:11.723Z,810.00
2018-08-11T11:42:11.762Z,742.50
2018-08-11T11:45:11.655Z,658.12
2018-08-11T11:48:11.659Z,2756.25
2018-08-11T11:51:11.630Z,2761.88
2018-08-11T11:54:11.552Z,2790.00
2018-08-11T11:57:11.741Z,2829.38
2018-08-11T12:00:11.566Z,2913.75
2018-08-11T12:03:11.442Z,2851.88
2018-08-11T12:06:11.421Z,2790.00
2018-08-11T12:09:11.375Z,3015.00
2018-08-11T12:12:11.478Z,2908.12
2018-08-11T12:15:11.341Z,765.00
2018-08-11T12:18:11.323Z,945.00
2018-08-11T12:21:11.327Z,871.88
2018-08-11T12:24:11.265Z,781.88
2018-08-11T12:27:11.242Z,849.38
2018-08-11T12:30:11.253Z,2891.25
2018-08-11T12:33:11.209Z,860.62
2018-08-11T12:36:11.119Z,652.50
2018-08-11T12:39:11.168Z,742.50
2018-08-11T12:42:11.060Z,905.62
2018-08-11T12:45:11.009Z,765.00
2018-08-11T12:48:12.095Z,2857.50
2018-08-11T12:51:10.943Z,2553.75
2018-08-11T12:54:11.022Z,2514.38
2018-08-11T12:57:10.877Z,2728.12
2018-08-11T13:00:10.960Z,2604.38
2018-08-11T13:03:10.820Z,939.38
2018-08-11T13:06:11.147Z,1018.12
2018-08-11T13:09:10.774Z,2716.88
2018-08-11T13:12:12.473Z,2812.50
2018-08-11T13:15:10.693Z,2716.88
2018-08-11T13:18:10.679Z,832.50
2018-08-11T13:21:10.715Z,1687.50
2018-08-11T13:24:12.490Z,2542.50
2018-08-11T13:27:10.589Z,793.12
2018-08-11T13:30:12.482Z,2610.00
2018-08-11T13:33:10.518Z,2677.50
2018-08-11T13:36:10.503Z,2503.12
2018-08-11T13:39:10.469Z,2497.50
2018-08-11T13:42:10.456Z,2323.12
2018-08-11T13:45:10.405Z,2300.62
2018-08-11T13:48:10.412Z,2311.88
2018-08-11T13:51:11.395Z,2227.50
2018-08-11T13:54:12.018Z,2227.50
2018-08-11T13:57:10.417Z,2261.25
2018-08-11T14:00:12.491Z,2160.00
2018-08-11T14:03:10.277Z,2053.12
2018-08-11T14:06:11.989Z,2137.50
2018-08-11T14:09:10.351Z,1884.38
2018-08-11T14:12:10.154Z,2064.38
2018-08-11T14:15:10.116Z,2131.88
2018-08-11T14:18:10.161Z,1816.88
2018-08-11T14:21:10.064Z,2002.50
2018-08-11T14:24:10.039Z,1822.50
2018-08-11T14:27:10.034Z,1811.25
2018-08-11T14:30:09.987Z,1963.12
2018-08-11T14:33:09.960Z,1771.88
2018-08-11T14:36:09.928Z,2047.50
2018-08-11T14:39:09.907Z,1822.50
2018-08-11T14:42:09.871Z,1918.12
2018-08-11T14:45:09.988Z,1743.75
2018-08-11T14:48:09.800Z,1800.00
2018-08-11T14:51:09.764Z,1721.25
2018-08-11T14:54:09.735Z,1670.62
2018-08-11T14:57:09.917Z,1530.00
2018-08-11T15:00:09.682Z,1530.00
2018-08-11T15:03:09.629Z,1389.38
2018-08-11T15:06:10.041Z,1299.38
2018-08-11T15:09:09.577Z,1310.62
2018-08-11T15:12:10.468Z,1350.00
2018-08-11T15:15:09.498Z,669.38
2018-08-11T15:18:09.506Z,1501.88
2018-08-11T15:21:09.454Z,1119.38
2018-08-11T15:24:09.506Z,933.75
2018-08-11T15:27:09.375Z,1276.88
2018-08-11T15:30:09.380Z,1445.62
2018-08-11T15:33:09.378Z,1293.75
2018-08-11T15:36:09.309Z,1310.62
2018-08-11T15:39:09.247Z,1276.88
2018-08-11T15:42:09.254Z,1310.62
2018-08-11T15:45:09.189Z,1170.00
2018-08-11T15:48:09.166Z,1186.88
2018-08-11T15:51:09.126Z,1113.75
2018-08-11T15:54:09.109Z,916.88
2018-08-11T15:57:09.087Z,826.88
2018-08-11T16:00:09.041Z,860.62
2018-08-11T16:03:09.058Z,804.38
2018-08-11T16:06:09.126Z,736.88
2018-08-11T16:09:08.931Z,663.75
2018-08-11T16:12:08.926Z,630.00
2018-08-11T16:15:08.874Z,658.12
2018-08-11T16:18:08.864Z,652.50
2018-08-11T16:21:08.799Z,652.50
2018-08-11T16:24:09.482Z,658.12
2018-08-11T16:27:08.730Z,658.12
2018-08-11T16:30:08.704Z,686.25
2018-08-11T16:33:08.733Z,663.75
2018-08-11T16:36:08.654Z,675.00
2018-08-11T16:39:08.610Z,675.00
2018-08-11T16:42:08.578Z,686.25
2018-08-11T16:45:08.533Z,691.88
2018-08-11T16:48:08.517Z,720.00
2018-08-11T16:51:08.463Z,708.75
2018-08-11T16:54:08.452Z,714.38
2018-08-11T16:57:15.053Z,663.75
2018-08-11T17:00:08.389Z,658.12
2018-08-11T17:03:08.338Z,708.75
2018-08-11T17:06:08.413Z,624.38
2018-08-11T17:09:08.271Z,596.25
2018-08-11T17:12:08.284Z,562.50
2018-08-11T17:15:08.213Z,483.75
2018-08-11T17:18:08.189Z,450.00
2018-08-11T17:21:08.157Z,461.25
2018-08-11T17:24:08.191Z,461.25
2018-08-11T17:27:08.285Z,511.88
2018-08-11T17:30:08.490Z,596.25
2018-08-11T17:33:08.056Z,551.25
2018-08-11T17:36:08.076Z,540.00
2018-08-11T17:39:07.957Z,444.38
2018-08-11T17:42:07.928Z,438.75
2018-08-11T17:45:07.922Z,393.75
2018-08-11T17:48:07.866Z,343.12
2018-08-11T17:51:07.825Z,331.88
2018-08-11T17:54:07.873Z,315.00
2018-08-11T17:57:07.859Z,303.75
2018-08-11T18:00:07.729Z,270.00
2018-08-11T18:03:07.706Z,298.12
2018-08-11T18:06:07.674Z,196.88
2018-08-11T18:09:07.637Z,225.00
2018-08-11T18:12:07.630Z,208.12
2018-08-11T18:15:07.566Z,168.75
2018-08-11T18:18:07.563Z,123.75
2018-08-11T18:21:07.595Z,118.12
2018-08-11T18:24:07.483Z,112.50
2018-08-11T18:27:07.414Z,106.88
2018-08-11T18:30:07.412Z,95.62
2018-08-11T18:33:07.382Z,90.00
2018-08-11T18:36:07.327Z,84.38
2018-08-11T18:39:07.298Z,73.12
2018-08-11T18:42:07.261Z,67.50
2018-08-11T18:45:07.251Z,56.25
2018-08-11T18:48:07.269Z,50.62
2018-08-11T18:51:07.231Z,39.38
2018-08-11T18:54:07.244Z,28.12
2018-08-11T18:57:08.089Z,22.50
2018-08-11T19:00:07.080Z,16.88
2018-08-11T19:03:07.012Z,16.88
2018-08-11T19:06:07.019Z,11.25
2018-08-11T19:09:06.948Z,5.62
2018-08-11T19:12:06.932Z,5.62
2018-08-11T19:15:06.917Z,0.00
2018-08-11T19:18:06.889Z,0.00
2018-08-11T19:21:07.802Z,0.00
2018-08-11T19:24:06.798Z,0.00
2018-08-11T19:27:08.462Z,0.00
2018-08-11T19:30:06.728Z,0.00
2018-08-11T19:33:07.705Z,0.00
2018-08-11T19:36:06.657Z,0.00
2018-08-11T19:39:06.610Z,0.00
2018-08-11T19:42:06.690Z,0.00
2018-08-11T19:45:06.598Z,0.00
2018-08-11T19:48:06.559Z,0.00
2018-08-11T19:51:06.485Z,0.00
2018-08-11T19:54:06.478Z,0.00
2018-08-11T19:57:06.973Z,0.00
2018-08-11T20:00:06.439Z,0.00
2018-08-11T20:03:06.354Z,0.00
2018-08-11T20:06:06.349Z,0.00
2018-08-11T20:09:06.348Z,0.00
2018-08-11T20:12:06.276Z,0.00
2018-08-11T20:15:06.217Z,0.00
2018-08-11T20:18:06.232Z,0.00
2018-08-11T20:21:06.142Z,0.00
2018-08-11T20:24:06.149Z,0.00
2018-08-11T20:27:06.097Z,0.00
2018-08-11T20:30:06.074Z,0.00
2018-08-11T20:33:06.020Z,0.00
2018-08-11T20:36:05.997Z,0.00
2018-08-11T20:39:05.955Z,0.00
2018-08-11T20:42:05.918Z,0.00
2018-08-11T20:45:05.914Z,0.00
2018-08-11T20:48:05.855Z,0.00
2018-08-11T20:51:05.826Z,0.00
2018-08-11T20:54:05.832Z,0.00
2018-08-11T20:57:05.955Z,0.00
2018-08-11T21:00:05.723Z,0.00
2018-08-11T21:03:05.676Z,0.00
2018-08-11T21:06:05.701Z,0.00
2018-08-11T21:09:05.613Z,0.00
2018-08-11T21:12:05.600Z,0.00
2018-08-11T21:15:05.557Z,0.00
2018-08-11T21:18:05.519Z,0.00
2018-08-11T21:21:05.495Z,0.00
2018-08-11T21:24:05.455Z,0.00
2018-08-11T21:27:05.424Z,0.00
2018-08-11T21:30:05.428Z,0.00
2018-08-11T21:33:05.349Z,0.00
2018-08-11T21:36:05.317Z,0.00
2018-08-11T21:39:05.295Z,0.00
2018-08-11T21:42:05.259Z,0.00
2018-08-11T21:45:05.207Z,0.00
2018-08-11T21:48:05.182Z,0.00
2018-08-11T21:51:05.144Z,0.00
2018-08-11T21:54:05.124Z,0.00
2018-08-11T21:57:05.071Z,0.00
2018-08-11T22:00:05.052Z,0.00
2018-08-11T22:03:05.004Z,0.00
2018-08-11T22:06:04.997Z,0.00
2018-08-11T22:09:04.952Z,0.00
2018-08-11T22:12:04.945Z,0.00
2018-08-11T22:15:04.890Z,0.00
2018-08-11T22:18:04.863Z,0.00
2018-08-11T22:21:04.824Z,0.00
2018-08-11T22:24:04.819Z,0.00
2018-08-11T22:27:04.746Z,0.00
2018-08-11T22:30:04.753Z,0.00
2018-08-11T22:33:04.678Z,0.00
2018-08-11T22:36:04.747Z,0.00
2018-08-11T22:39:04.622Z,0.00
2018-08-11T22:42:04.581Z,0.00
2018-08-11T22:45:04.535Z,0.00
2018-08-11T22:48:04.520Z,0.00
2018-08-11T22:51:04.501Z,0.00
2018-08-11T22:54:04.454Z,0.00
2018-08-11T22:57:04.406Z,0.00
2018-08-11T23:00:04.383Z,0.00
2018-08-11T23:03:04.370Z,0.00
2018-08-11T23:06:04.305Z,0.00
2018-08-11T23:09:04.261Z,0.00
2018-08-11T23:12:04.238Z,0.00
2018-08-11T23:15:04.210Z,0.00
2018-08-11T23:18:04.175Z,0.00
2018-08-11T23:21:04.149Z,0.00
2018-08-11T23:24:04.138Z,0.00
2018-08-11T23:27:05.161Z,0.00
2018-08-11T23:30:04.105Z,0.00
2018-08-11T23:33:04.013Z,0.00
2018-08-11T23:36:03.989Z,0.00
2018-08-11T23:39:03.943Z,0.00
2018-08-11T23:42:03.907Z,0.00
2018-08-11T23:45:03.878Z,0.00
2018-08-11T23:48:03.850Z,0.00
2018-08-11T23:51:03.809Z,0.00
2018-08-11T23:54:03.788Z,0.00
2018-08-11T23:57:03.821Z,0.00
